Ruidoso Downs, New Mexico
Current Conditions -  °F | °C
As of 5:58 PM on Friday 24 Oct 2014 (Local Time) from KHMN Reporting Station
Clear Clear  
Wind Chill: 80°   Ceiling: Unl
Heat Index: 80°   Visibility: 10mi
Dew Point: 44°   Wind: 0mph
Humidity: 28%   Direction: NA
Pressure: 30.15"   Gusts: NA
Location:  33.33°N, 105.6°W
Report Text: KHMN 242358Z AUTO 00000KT 10SM CLR 27/07 A3015 RMK AO2 SLP155 T02670066 10276 20228 $
Loading
Personal Weather Stations






























Interactive Weather Map
Tropical Storm Tracking
New forecast layout! Learn more

10-Day Weather Forecast

Advertisements
Track Severe Weather on mobile